sensor_id;sensor_type;location;lat;lon;timestamp;P1;durP1;ratioP1;P2;durP2;ratioP2
3867;SDS011;1949;48.152;11.528;2023-02-15T00:01:45;12.17;;;6.17;;
3867;SDS011;1949;48.152;11.528;2023-02-15T00:04:14;12.37;;;6.50;;
3867;SDS011;1949;48.152;11.528;2023-02-15T00:06:43;15.33;;;6.30;;
3867;SDS011;1949;48.152;11.528;2023-02-15T00:11:39;13.80;;;6.70;;
3867;SDS011;1949;48.152;11.528;2023-02-15T00:14:24;15.20;;;7.07;;
3867;SDS011;1949;48.152;11.528;2023-02-15T00:16:52;19.10;;;8.40;;
3867;SDS011;1949;48.152;11.528;2023-02-15T00:19:20;14.50;;;7.27;;
3867;SDS011;1949;48.152;11.528;2023-02-15T00:21:47;13.47;;;6.57;;
3867;SDS011;1949;48.152;11.528;2023-02-15T00:24:16;18.53;;;7.00;;
3867;SDS011;1949;48.152;11.528;2023-02-15T00:26:43;14.43;;;7.00;;
3867;SDS011;1949;48.152;11.528;2023-02-15T00:29:12;18.70;;;7.20;;
3867;SDS011;1949;48.152;11.528;2023-02-15T00:31:41;17.47;;;7.70;;
3867;SDS011;1949;48.152;11.528;2023-02-15T00:34:28;17.40;;;7.70;;
3867;SDS011;1949;48.152;11.528;2023-02-15T00:36:53;12.33;;;6.30;;
3867;SDS011;1949;48.152;11.528;2023-02-15T00:39:19;10.17;;;6.30;;
3867;SDS011;1949;48.152;11.528;2023-02-15T00:41:46;12.83;;;6.10;;
3867;SDS011;1949;48.152;11.528;2023-02-15T00:44:12;12.00;;;7.43;;
3867;SDS011;1949;48.152;11.528;2023-02-15T00:46:38;14.17;;;6.90;;
3867;SDS011;1949;48.152;11.528;2023-02-15T00:49:04;17.50;;;6.40;;
3867;SDS011;1949;48.152;11.528;2023-02-15T00:51:30;14.50;;;6.50;;
3867;SDS011;1949;48.152;11.528;2023-02-15T00:56:26;12.30;;;6.00;;
3867;SDS011;1949;48.152;11.528;2023-02-15T01:01:22;10.63;;;5.93;;
3867;SDS011;1949;48.152;11.528;2023-02-15T01:03:55;14.10;;;6.03;;
3867;SDS011;1949;48.152;11.528;2023-02-15T01:06:22;15.27;;;5.80;;
3867;SDS011;1949;48.152;11.528;2023-02-15T01:08:47;12.03;;;6.30;;
3867;SDS011;1949;48.152;11.528;2023-02-15T01:11:14;9.10;;;5.93;;
3867;SDS011;1949;48.152;11.528;2023-02-15T01:13:50;16.23;;;6.30;;
3867;SDS011;1949;48.152;11.528;2023-02-15T01:16:19;9.53;;;5.60;;
3867;SDS011;1949;48.152;11.528;2023-02-15T01:18:46;17.13;;;6.07;;
3867;SDS011;1949;48.152;11.528;2023-02-15T01:21:14;12.37;;;5.60;;
3867;SDS011;1949;48.152;11.528;2023-02-15T01:23:42;10.73;;;6.03;;
3867;SDS011;1949;48.152;11.528;2023-02-15T01:26:10;11.00;;;5.57;;
3867;SDS011;1949;48.152;11.528;2023-02-15T01:28:38;8.27;;;4.67;;
3867;SDS011;1949;48.152;11.528;2023-02-15T01:31:05;9.63;;;5.43;;
3867;SDS011;1949;48.152;11.528;2023-02-15T01:33:37;8.13;;;4.20;;
3867;SDS011;1949;48.152;11.528;2023-02-15T01:36:04;8.93;;;5.40;;
3867;SDS011;1949;48.152;11.528;2023-02-15T01:38:31;13.73;;;5.90;;
3867;SDS011;1949;48.152;11.528;2023-02-15T01:40:57;8.60;;;4.70;;
3867;SDS011;1949;48.152;11.528;2023-02-15T01:43:44;22.00;;;5.40;;
3867;SDS011;1949;48.152;11.528;2023-02-15T01:46:14;9.03;;;5.30;;
3867;SDS011;1949;48.152;11.528;2023-02-15T01:48:43;15.20;;;5.80;;
3867;SDS011;1949;48.152;11.528;2023-02-15T01:51:16;8.80;;;5.20;;
3867;SDS011;1949;48.152;11.528;2023-02-15T01:53:52;12.77;;;5.10;;
3867;SDS011;1949;48.152;11.528;2023-02-15T01:56:27;9.20;;;5.63;;
3867;SDS011;1949;48.152;11.528;2023-02-15T01:59:04;9.13;;;5.23;;
3867;SDS011;1949;48.152;11.528;2023-02-15T02:01:35;8.03;;;4.70;;
3867;SDS011;1949;48.152;11.528;2023-02-15T02:06:28;8.30;;;4.50;;
3867;SDS011;1949;48.152;11.528;2023-02-15T02:08:54;9.17;;;5.30;;
3867;SDS011;1949;48.152;11.528;2023-02-15T02:11:22;9.00;;;5.30;;
3867;SDS011;1949;48.152;11.528;2023-02-15T02:13:48;10.70;;;5.60;;
3867;SDS011;1949;48.152;11.528;2023-02-15T02:16:20;7.47;;;4.87;;
3867;SDS011;1949;48.152;11.528;2023-02-15T02:18:52;11.93;;;5.93;;
3867;SDS011;1949;48.152;11.528;2023-02-15T02:27:34;10.87;;;5.40;;
3867;SDS011;1949;48.152;11.528;2023-02-15T02:33:12;9.30;;;4.83;;
3867;SDS011;1949;48.152;11.528;2023-02-15T02:36:15;11.87;;;5.90;;
3867;SDS011;1949;48.152;11.528;2023-02-15T02:41:31;9.83;;;5.40;;
3867;SDS011;1949;48.152;11.528;2023-02-15T02:46:52;18.83;;;5.77;;
3867;SDS011;1949;48.152;11.528;2023-02-15T02:55:51;9.47;;;4.90;;
3867;SDS011;1949;48.152;11.528;2023-02-15T02:57:54;11.03;;;5.23;;
3867;SDS011;1949;48.152;11.528;2023-02-15T03:00:40;6.40;;;4.53;;
3867;SDS011;1949;48.152;11.528;2023-02-15T03:05:53;9.37;;;5.13;;
3867;SDS011;1949;48.152;11.528;2023-02-15T03:08:27;11.10;;;5.37;;
3867;SDS011;1949;48.152;11.528;2023-02-15T03:11:00;10.27;;;5.70;;
3867;SDS011;1949;48.152;11.528;2023-02-15T03:13:28;9.00;;;5.17;;
3867;SDS011;1949;48.152;11.528;2023-02-15T03:15:54;12.07;;;6.00;;
3867;SDS011;1949;48.152;11.528;2023-02-15T03:18:48;11.30;;;5.33;;
3867;SDS011;1949;48.152;11.528;2023-02-15T03:21:26;12.10;;;5.50;;
3867;SDS011;1949;48.152;11.528;2023-02-15T03:24:35;11.13;;;5.33;;
3867;SDS011;1949;48.152;11.528;2023-02-15T03:27:14;8.70;;;5.00;;
3867;SDS011;1949;48.152;11.528;2023-02-15T03:29:52;8.37;;;5.30;;
3867;SDS011;1949;48.152;11.528;2023-02-15T03:32:22;24.63;;;6.60;;
3867;SDS011;1949;48.152;11.528;2023-02-15T03:34:50;8.83;;;5.40;;
3867;SDS011;1949;48.152;11.528;2023-02-15T03:37:26;9.53;;;5.00;;
3867;SDS011;1949;48.152;11.528;2023-02-15T03:40:22;9.57;;;5.80;;
3867;SDS011;1949;48.152;11.528;2023-02-15T03:45:49;11.93;;;6.10;;
3867;SDS011;1949;48.152;11.528;2023-02-15T03:48:39;10.50;;;5.50;;
3867;SDS011;1949;48.152;11.528;2023-02-15T03:51:10;10.30;;;5.37;;
3867;SDS011;1949;48.152;11.528;2023-02-15T03:57:06;9.03;;;4.93;;
3867;SDS011;1949;48.152;11.528;2023-02-15T04:00:00;10.27;;;5.47;;
3867;SDS011;1949;48.152;11.528;2023-02-15T04:03:05;10.97;;;5.57;;
3867;SDS011;1949;48.152;11.528;2023-02-15T04:05:34;9.00;;;4.77;;
3867;SDS011;1949;48.152;11.528;2023-02-15T04:08:00;8.43;;;4.60;;
3867;SDS011;1949;48.152;11.528;2023-02-15T04:10:26;12.17;;;5.53;;
3867;SDS011;1949;48.152;11.528;2023-02-15T04:13:12;9.50;;;5.77;;
3867;SDS011;1949;48.152;11.528;2023-02-15T04:15:37;8.73;;;4.80;;
3867;SDS011;1949;48.152;11.528;2023-02-15T04:18:21;10.83;;;5.17;;
3867;SDS011;1949;48.152;11.528;2023-02-15T04:21:06;10.70;;;5.53;;
3867;SDS011;1949;48.152;11.528;2023-02-15T04:23:50;11.90;;;5.60;;
3867;SDS011;1949;48.152;11.528;2023-02-15T04:26:35;12.23;;;5.33;;
3867;SDS011;1949;48.152;11.528;2023-02-15T04:29:01;15.20;;;6.23;;
3867;SDS011;1949;48.152;11.528;2023-02-15T04:31:28;8.70;;;5.47;;
3867;SDS011;1949;48.152;11.528;2023-02-15T04:33:54;11.40;;;5.53;;
3867;SDS011;1949;48.152;11.528;2023-02-15T04:36:20;10.07;;;5.40;;
3867;SDS011;1949;48.152;11.528;2023-02-15T04:38:45;11.10;;;6.07;;
3867;SDS011;1949;48.152;11.528;2023-02-15T04:41:11;8.73;;;5.10;;
3867;SDS011;1949;48.152;11.528;2023-02-15T04:46:07;10.40;;;5.30;;
3867;SDS011;1949;48.152;11.528;2023-02-15T04:48:33;11.23;;;5.53;;
3867;SDS011;1949;48.152;11.528;2023-02-15T04:50:59;10.57;;;5.50;;
3867;SDS011;1949;48.152;11.528;2023-02-15T04:53:27;11.80;;;6.27;;
3867;SDS011;1949;48.152;11.528;2023-02-15T04:55:55;20.60;;;6.60;;
3867;SDS011;1949;48.152;11.528;2023-02-15T04:58:22;42.27;;;7.37;;
3867;SDS011;1949;48.152;11.528;2023-02-15T05:00:47;10.30;;;5.93;;
3867;SDS011;1949;48.152;11.528;2023-02-15T05:03:13;12.10;;;5.70;;
3867;SDS011;1949;48.152;11.528;2023-02-15T05:05:41;11.37;;;5.87;;
3867;SDS011;1949;48.152;11.528;2023-02-15T05:08:07;11.90;;;5.53;;
3867;SDS011;1949;48.152;11.528;2023-02-15T05:10:35;12.43;;;6.53;;
3867;SDS011;1949;48.152;11.528;2023-02-15T05:13:00;11.00;;;6.10;;
3867;SDS011;1949;48.152;11.528;2023-02-15T05:15:29;11.37;;;5.53;;
3867;SDS011;1949;48.152;11.528;2023-02-15T05:17:56;11.03;;;5.40;;
3867;SDS011;1949;48.152;11.528;2023-02-15T05:20:23;10.03;;;5.60;;
3867;SDS011;1949;48.152;11.528;2023-02-15T05:22:48;26.47;;;6.77;;
3867;SDS011;1949;48.152;11.528;2023-02-15T05:25:20;13.83;;;5.90;;
3867;SDS011;1949;48.152;11.528;2023-02-15T05:28:04;11.13;;;5.20;;
3867;SDS011;1949;48.152;11.528;2023-02-15T05:30:46;20.80;;;5.03;;
3867;SDS011;1949;48.152;11.528;2023-02-15T05:33:16;14.17;;;6.10;;
3867;SDS011;1949;48.152;11.528;2023-02-15T05:35:51;20.80;;;6.57;;
3867;SDS011;1949;48.152;11.528;2023-02-15T05:38:17;36.73;;;6.50;;
3867;SDS011;1949;48.152;11.528;2023-02-15T05:40:42;10.00;;;5.40;;
3867;SDS011;1949;48.152;11.528;2023-02-15T05:43:09;9.40;;;5.30;;
3867;SDS011;1949;48.152;11.528;2023-02-15T05:45:36;23.97;;;7.50;;
3867;SDS011;1949;48.152;11.528;2023-02-15T05:48:02;24.07;;;10.23;;
3867;SDS011;1949;48.152;11.528;2023-02-15T05:50:28;50.10;;;6.90;;
3867;SDS011;1949;48.152;11.528;2023-02-15T05:52:54;11.00;;;5.97;;
3867;SDS011;1949;48.152;11.528;2023-02-15T05:55:20;12.27;;;5.33;;
3867;SDS011;1949;48.152;11.528;2023-02-15T05:57:46;37.23;;;10.77;;
3867;SDS011;1949;48.152;11.528;2023-02-15T06:00:13;17.57;;;6.67;;
3867;SDS011;1949;48.152;11.528;2023-02-15T06:02:39;32.83;;;7.27;;
3867;SDS011;1949;48.152;11.528;2023-02-15T06:05:07;38.40;;;6.47;;
3867;SDS011;1949;48.152;11.528;2023-02-15T06:07:33;13.37;;;6.00;;
3867;SDS011;1949;48.152;11.528;2023-02-15T06:09:59;13.80;;;6.73;;
3867;SDS011;1949;48.152;11.528;2023-02-15T06:12:26;50.27;;;5.90;;
3867;SDS011;1949;48.152;11.528;2023-02-15T06:14:51;11.20;;;5.60;;
3867;SDS011;1949;48.152;11.528;2023-02-15T06:17:17;12.00;;;6.27;;
3867;SDS011;1949;48.152;11.528;2023-02-15T06:19:43;12.10;;;6.37;;
3867;SDS011;1949;48.152;11.528;2023-02-15T06:22:16;13.17;;;6.77;;
3867;SDS011;1949;48.152;11.528;2023-02-15T06:24:45;17.00;;;6.00;;
3867;SDS011;1949;48.152;11.528;2023-02-15T06:27:13;16.80;;;7.47;;
3867;SDS011;1949;48.152;11.528;2023-02-15T06:29:43;15.83;;;7.30;;
3867;SDS011;1949;48.152;11.528;2023-02-15T06:32:13;17.30;;;7.83;;
3867;SDS011;1949;48.152;11.528;2023-02-15T06:34:40;24.83;;;9.00;;
3867;SDS011;1949;48.152;11.528;2023-02-15T06:37:07;43.07;;;9.90;;
3867;SDS011;1949;48.152;11.528;2023-02-15T06:39:35;19.00;;;7.90;;
3867;SDS011;1949;48.152;11.528;2023-02-15T06:42:08;19.07;;;6.40;;
3867;SDS011;1949;48.152;11.528;2023-02-15T06:44:34;17.00;;;6.33;;
3867;SDS011;1949;48.152;11.528;2023-02-15T06:47:01;15.87;;;7.53;;
3867;SDS011;1949;48.152;11.528;2023-02-15T06:49:36;12.20;;;6.50;;
3867;SDS011;1949;48.152;11.528;2023-02-15T06:52:02;14.23;;;6.37;;
3867;SDS011;1949;48.152;11.528;2023-02-15T06:54:28;20.87;;;8.50;;
3867;SDS011;1949;48.152;11.528;2023-02-15T06:56:55;14.63;;;7.47;;
3867;SDS011;1949;48.152;11.528;2023-02-15T06:59:23;12.20;;;6.57;;
3867;SDS011;1949;48.152;11.528;2023-02-15T07:01:50;12.03;;;6.47;;
3867;SDS011;1949;48.152;11.528;2023-02-15T07:04:17;15.33;;;7.80;;
3867;SDS011;1949;48.152;11.528;2023-02-15T07:06:43;19.13;;;8.03;;
3867;SDS011;1949;48.152;11.528;2023-02-15T07:09:11;20.10;;;8.20;;
3867;SDS011;1949;48.152;11.528;2023-02-15T07:11:43;18.90;;;9.10;;
3867;SDS011;1949;48.152;11.528;2023-02-15T07:14:28;21.17;;;9.73;;
3867;SDS011;1949;48.152;11.528;2023-02-15T07:16:57;15.40;;;7.80;;
3867;SDS011;1949;48.152;11.528;2023-02-15T07:19:23;16.60;;;7.80;;
3867;SDS011;1949;48.152;11.528;2023-02-15T07:21:50;13.47;;;7.40;;
3867;SDS011;1949;48.152;11.528;2023-02-15T07:24:17;22.20;;;6.40;;
3867;SDS011;1949;48.152;11.528;2023-02-15T07:26:44;17.90;;;7.40;;
3867;SDS011;1949;48.152;11.528;2023-02-15T07:29:10;16.87;;;8.03;;
3867;SDS011;1949;48.152;11.528;2023-02-15T07:31:36;22.17;;;9.37;;
3867;SDS011;1949;48.152;11.528;2023-02-15T07:34:05;13.80;;;6.67;;
3867;SDS011;1949;48.152;11.528;2023-02-15T07:36:32;24.53;;;10.50;;
3867;SDS011;1949;48.152;11.528;2023-02-15T07:39:01;17.33;;;7.90;;
3867;SDS011;1949;48.152;11.528;2023-02-15T07:41:36;16.37;;;7.80;;
3867;SDS011;1949;48.152;11.528;2023-02-15T07:44:01;18.83;;;8.17;;
3867;SDS011;1949;48.152;11.528;2023-02-15T07:46:29;19.43;;;7.87;;
3867;SDS011;1949;48.152;11.528;2023-02-15T07:49:02;14.97;;;7.40;;
3867;SDS011;1949;48.152;11.528;2023-02-15T07:51:30;16.47;;;7.70;;
3867;SDS011;1949;48.152;11.528;2023-02-15T07:54:02;20.07;;;8.67;;
3867;SDS011;1949;48.152;11.528;2023-02-15T07:56:28;13.83;;;7.30;;
3867;SDS011;1949;48.152;11.528;2023-02-15T07:58:54;14.07;;;7.40;;
3867;SDS011;1949;48.152;11.528;2023-02-15T08:01:23;12.67;;;7.00;;
3867;SDS011;1949;48.152;11.528;2023-02-15T08:03:55;16.07;;;8.20;;
3867;SDS011;1949;48.152;11.528;2023-02-15T08:06:22;15.47;;;7.40;;
3867;SDS011;1949;48.152;11.528;2023-02-15T08:08:50;12.50;;;7.00;;
3867;SDS011;1949;48.152;11.528;2023-02-15T08:11:17;15.47;;;6.97;;
3867;SDS011;1949;48.152;11.528;2023-02-15T08:13:55;25.27;;;7.10;;
3867;SDS011;1949;48.152;11.528;2023-02-15T08:18:59;18.27;;;8.03;;
3867;SDS011;1949;48.152;11.528;2023-02-15T08:21:27;15.60;;;7.90;;
3867;SDS011;1949;48.152;11.528;2023-02-15T08:23:54;15.07;;;8.13;;
3867;SDS011;1949;48.152;11.528;2023-02-15T08:26:22;13.73;;;7.43;;
3867;SDS011;1949;48.152;11.528;2023-02-15T08:28:50;17.17;;;8.20;;
3867;SDS011;1949;48.152;11.528;2023-02-15T08:31:17;14.90;;;7.77;;
3867;SDS011;1949;48.152;11.528;2023-02-15T08:33:43;15.67;;;8.10;;
3867;SDS011;1949;48.152;11.528;2023-02-15T08:38:44;15.23;;;7.20;;
3867;SDS011;1949;48.152;11.528;2023-02-15T08:43:36;16.27;;;8.20;;
3867;SDS011;1949;48.152;11.528;2023-02-15T08:48:31;20.77;;;8.97;;
3867;SDS011;1949;48.152;11.528;2023-02-15T08:50:57;22.70;;;11.87;;
3867;SDS011;1949;48.152;11.528;2023-02-15T08:53:23;44.23;;;14.87;;
3867;SDS011;1949;48.152;11.528;2023-02-15T08:55:58;40.10;;;17.23;;
3867;SDS011;1949;48.152;11.528;2023-02-15T08:58:24;39.53;;;14.73;;
3867;SDS011;1949;48.152;11.528;2023-02-15T09:00:50;20.50;;;9.23;;
3867;SDS011;1949;48.152;11.528;2023-02-15T09:03:17;21.87;;;9.00;;
3867;SDS011;1949;48.152;11.528;2023-02-15T09:05:42;16.93;;;8.60;;
3867;SDS011;1949;48.152;11.528;2023-02-15T09:08:09;30.30;;;11.80;;
3867;SDS011;1949;48.152;11.528;2023-02-15T09:10:35;13.43;;;8.07;;
3867;SDS011;1949;48.152;11.528;2023-02-15T09:13:01;20.90;;;8.97;;
3867;SDS011;1949;48.152;11.528;2023-02-15T09:15:27;19.43;;;8.70;;
3867;SDS011;1949;48.152;11.528;2023-02-15T09:17:53;14.57;;;7.97;;
3867;SDS011;1949;48.152;11.528;2023-02-15T09:20:19;41.43;;;9.10;;
3867;SDS011;1949;48.152;11.528;2023-02-15T09:22:45;25.37;;;9.80;;
3867;SDS011;1949;48.152;11.528;2023-02-15T09:25:10;26.57;;;9.97;;
3867;SDS011;1949;48.152;11.528;2023-02-15T09:27:38;24.83;;;9.63;;
3867;SDS011;1949;48.152;11.528;2023-02-15T09:30:05;24.63;;;9.20;;
3867;SDS011;1949;48.152;11.528;2023-02-15T09:32:31;21.50;;;10.53;;
3867;SDS011;1949;48.152;11.528;2023-02-15T09:34:57;18.00;;;9.23;;
3867;SDS011;1949;48.152;11.528;2023-02-15T09:37:22;22.73;;;8.87;;
3867;SDS011;1949;48.152;11.528;2023-02-15T09:39:48;21.37;;;8.60;;
3867;SDS011;1949;48.152;11.528;2023-02-15T09:50:29;31.63;;;12.40;;
3867;SDS011;1949;48.152;11.528;2023-02-15T10:15:12;26.30;;;10.17;;
3867;SDS011;1949;48.152;11.528;2023-02-15T10:18:05;22.43;;;10.70;;
3867;SDS011;1949;48.152;11.528;2023-02-15T10:20:44;19.93;;;10.07;;
3867;SDS011;1949;48.152;11.528;2023-02-15T10:23:26;24.03;;;10.17;;
3867;SDS011;1949;48.152;11.528;2023-02-15T10:28:57;22.03;;;10.50;;
3867;SDS011;1949;48.152;11.528;2023-02-15T10:31:50;21.47;;;9.90;;
3867;SDS011;1949;48.152;11.528;2023-02-15T10:37:10;19.37;;;10.00;;
3867;SDS011;1949;48.152;11.528;2023-02-15T10:45:11;32.43;;;14.73;;
3867;SDS011;1949;48.152;11.528;2023-02-15T10:50:52;30.63;;;13.90;;
3867;SDS011;1949;48.152;11.528;2023-02-15T11:08:02;33.60;;;14.50;;
3867;SDS011;1949;48.152;11.528;2023-02-15T11:10:22;28.10;;;12.93;;
3867;SDS011;1949;48.152;11.528;2023-02-15T11:12:53;40.90;;;14.07;;
3867;SDS011;1949;48.152;11.528;2023-02-15T11:15:37;54.87;;;13.83;;
3867;SDS011;1949;48.152;11.528;2023-02-15T11:21:01;31.23;;;14.50;;
3867;SDS011;1949;48.152;11.528;2023-02-15T11:23:27;28.73;;;13.20;;
3867;SDS011;1949;48.152;11.528;2023-02-15T11:25:57;61.77;;;13.67;;
3867;SDS011;1949;48.152;11.528;2023-02-15T11:28:47;31.73;;;14.67;;
3867;SDS011;1949;48.152;11.528;2023-02-15T11:31:21;36.83;;;14.10;;
3867;SDS011;1949;48.152;11.528;2023-02-15T11:34:03;34.83;;;16.27;;
3867;SDS011;1949;48.152;11.528;2023-02-15T11:36:37;64.00;;;20.60;;
3867;SDS011;1949;48.152;11.528;2023-02-15T11:39:11;48.63;;;19.47;;
3867;SDS011;1949;48.152;11.528;2023-02-15T11:42:02;34.37;;;15.47;;
3867;SDS011;1949;48.152;11.528;2023-02-15T11:44:58;45.50;;;19.83;;
3867;SDS011;1949;48.152;11.528;2023-02-15T11:47:27;45.90;;;22.47;;
3867;SDS011;1949;48.152;11.528;2023-02-15T11:49:53;52.57;;;19.80;;
3867;SDS011;1949;48.152;11.528;2023-02-15T11:52:20;48.40;;;18.37;;
3867;SDS011;1949;48.152;11.528;2023-02-15T11:54:49;40.37;;;16.43;;
3867;SDS011;1949;48.152;11.528;2023-02-15T11:57:23;48.77;;;20.87;;
3867;SDS011;1949;48.152;11.528;2023-02-15T12:00:18;47.97;;;18.80;;
3867;SDS011;1949;48.152;11.528;2023-02-15T12:02:52;40.00;;;17.40;;
3867;SDS011;1949;48.152;11.528;2023-02-15T12:05:21;33.97;;;13.90;;
3867;SDS011;1949;48.152;11.528;2023-02-15T12:10:31;49.50;;;22.17;;
3867;SDS011;1949;48.152;11.528;2023-02-15T12:13:13;53.53;;;23.50;;
3867;SDS011;1949;48.152;11.528;2023-02-15T12:15:42;42.83;;;20.40;;
3867;SDS011;1949;48.152;11.528;2023-02-15T12:18:31;44.80;;;19.40;;
3867;SDS011;1949;48.152;11.528;2023-02-15T12:21:05;65.13;;;24.57;;
3867;SDS011;1949;48.152;11.528;2023-02-15T12:23:34;68.73;;;28.03;;
3867;SDS011;1949;48.152;11.528;2023-02-15T12:28:54;39.40;;;19.47;;
3867;SDS011;1949;48.152;11.528;2023-02-15T12:31:30;75.93;;;25.47;;
3867;SDS011;1949;48.152;11.528;2023-02-15T12:34:02;66.30;;;24.80;;
3867;SDS011;1949;48.152;11.528;2023-02-15T12:39:22;37.07;;;18.07;;
3867;SDS011;1949;48.152;11.528;2023-02-15T12:44:25;76.00;;;28.80;;
3867;SDS011;1949;48.152;11.528;2023-02-15T12:49:41;53.87;;;20.80;;
3867;SDS011;1949;48.152;11.528;2023-02-15T12:54:46;52.07;;;21.50;;
3867;SDS011;1949;48.152;11.528;2023-02-15T12:57:21;69.37;;;23.03;;
3867;SDS011;1949;48.152;11.528;2023-02-15T12:59:58;45.80;;;20.07;;
3867;SDS011;1949;48.152;11.528;2023-02-15T13:05:27;42.30;;;19.60;;
3867;SDS011;1949;48.152;11.528;2023-02-15T13:08:22;47.60;;;17.00;;
3867;SDS011;1949;48.152;11.528;2023-02-15T13:16:09;37.67;;;14.70;;
3867;SDS011;1949;48.152;11.528;2023-02-15T13:18:39;41.73;;;16.97;;
3867;SDS011;1949;48.152;11.528;2023-02-15T13:21:12;41.70;;;19.27;;
3867;SDS011;1949;48.152;11.528;2023-02-15T13:24:05;43.53;;;19.00;;
3867;SDS011;1949;48.152;11.528;2023-02-15T13:26:38;46.50;;;22.27;;
3867;SDS011;1949;48.152;11.528;2023-02-15T13:29:12;37.67;;;18.10;;
3867;SDS011;1949;48.152;11.528;2023-02-15T13:31:53;37.10;;;15.60;;
3867;SDS011;1949;48.152;11.528;2023-02-15T13:34:24;26.90;;;13.73;;
3867;SDS011;1949;48.152;11.528;2023-02-15T13:42:37;58.63;;;18.37;;
3867;SDS011;1949;48.152;11.528;2023-02-15T13:57:04;40.83;;;14.97;;
3867;SDS011;1949;48.152;11.528;2023-02-15T13:59:50;32.53;;;13.77;;
3867;SDS011;1949;48.152;11.528;2023-02-15T14:05:29;29.03;;;14.17;;
3867;SDS011;1949;48.152;11.528;2023-02-15T14:11:04;27.53;;;12.40;;
3867;SDS011;1949;48.152;11.528;2023-02-15T14:19:05;33.37;;;16.70;;
3867;SDS011;1949;48.152;11.528;2023-02-15T14:22:21;37.93;;;15.53;;
3867;SDS011;1949;48.152;11.528;2023-02-15T14:24:41;30.93;;;12.97;;
3867;SDS011;1949;48.152;11.528;2023-02-15T14:27:26;19.43;;;10.60;;
3867;SDS011;1949;48.152;11.528;2023-02-15T14:30:10;23.90;;;10.77;;
3867;SDS011;1949;48.152;11.528;2023-02-15T14:36:11;19.10;;;9.77;;
3867;SDS011;1949;48.152;11.528;2023-02-15T14:42:07;19.90;;;10.93;;
3867;SDS011;1949;48.152;11.528;2023-02-15T14:44:15;38.73;;;16.23;;
3867;SDS011;1949;48.152;11.528;2023-02-15T14:46:52;22.17;;;11.53;;
3867;SDS011;1949;48.152;11.528;2023-02-15T14:49:28;21.40;;;10.60;;
3867;SDS011;1949;48.152;11.528;2023-02-15T14:52:04;22.33;;;11.10;;
3867;SDS011;1949;48.152;11.528;2023-02-15T15:04:35;17.00;;;9.60;;
3867;SDS011;1949;48.152;11.528;2023-02-15T15:07:27;17.17;;;9.77;;
3867;SDS011;1949;48.152;11.528;2023-02-15T15:17:59;24.40;;;12.33;;
3867;SDS011;1949;48.152;11.528;2023-02-15T15:20:48;33.63;;;13.53;;
3867;SDS011;1949;48.152;11.528;2023-02-15T15:28:07;42.37;;;17.60;;
3867;SDS011;1949;48.152;11.528;2023-02-15T15:33:04;24.13;;;12.73;;
3867;SDS011;1949;48.152;11.528;2023-02-15T15:36:01;26.73;;;12.57;;
3867;SDS011;1949;48.152;11.528;2023-02-15T15:41:47;28.60;;;13.00;;
3867;SDS011;1949;48.152;11.528;2023-02-15T15:47:29;33.13;;;11.57;;
3867;SDS011;1949;48.152;11.528;2023-02-15T15:50:31;26.70;;;12.80;;
3867;SDS011;1949;48.152;11.528;2023-02-15T15:52:59;26.13;;;10.97;;
3867;SDS011;1949;48.152;11.528;2023-02-15T15:55:30;26.47;;;11.10;;
3867;SDS011;1949;48.152;11.528;2023-02-15T15:57:59;36.33;;;12.17;;
3867;SDS011;1949;48.152;11.528;2023-02-15T16:03:23;30.20;;;11.27;;
3867;SDS011;1949;48.152;11.528;2023-02-15T16:05:52;25.30;;;13.40;;
3867;SDS011;1949;48.152;11.528;2023-02-15T16:11:07;46.17;;;15.00;;
3867;SDS011;1949;48.152;11.528;2023-02-15T16:13:44;47.03;;;21.73;;
3867;SDS011;1949;48.152;11.528;2023-02-15T16:16:13;48.70;;;19.80;;
3867;SDS011;1949;48.152;11.528;2023-02-15T16:18:46;29.43;;;13.80;;
3867;SDS011;1949;48.152;11.528;2023-02-15T16:21:23;54.00;;;24.20;;
3867;SDS011;1949;48.152;11.528;2023-02-15T16:29:15;38.80;;;14.20;;
3867;SDS011;1949;48.152;11.528;2023-02-15T16:31:43;28.70;;;15.17;;
3867;SDS011;1949;48.152;11.528;2023-02-15T16:34:22;35.93;;;13.33;;
3867;SDS011;1949;48.152;11.528;2023-02-15T16:36:48;24.43;;;12.23;;
3867;SDS011;1949;48.152;11.528;2023-02-15T16:39:19;28.60;;;12.03;;
3867;SDS011;1949;48.152;11.528;2023-02-15T16:41:45;28.87;;;12.50;;
3867;SDS011;1949;48.152;11.528;2023-02-15T16:44:18;36.10;;;14.87;;
3867;SDS011;1949;48.152;11.528;2023-02-15T16:46:48;34.73;;;15.00;;
3867;SDS011;1949;48.152;11.528;2023-02-15T16:49:25;36.33;;;13.13;;
3867;SDS011;1949;48.152;11.528;2023-02-15T16:51:56;31.47;;;13.50;;
3867;SDS011;1949;48.152;11.528;2023-02-15T16:54:24;35.23;;;14.40;;
3867;SDS011;1949;48.152;11.528;2023-02-15T16:56:53;36.63;;;17.03;;
3867;SDS011;1949;48.152;11.528;2023-02-15T17:01:54;33.93;;;16.20;;
3867;SDS011;1949;48.152;11.528;2023-02-15T17:09:31;32.40;;;15.13;;
3867;SDS011;1949;48.152;11.528;2023-02-15T17:11:58;32.97;;;15.77;;
3867;SDS011;1949;48.152;11.528;2023-02-15T17:14:29;41.57;;;15.10;;
3867;SDS011;1949;48.152;11.528;2023-02-15T17:17:04;40.73;;;16.63;;
3867;SDS011;1949;48.152;11.528;2023-02-15T17:22:27;32.67;;;14.70;;
3867;SDS011;1949;48.152;11.528;2023-02-15T17:25:00;27.73;;;14.10;;
3867;SDS011;1949;48.152;11.528;2023-02-15T17:27:29;39.70;;;14.47;;
3867;SDS011;1949;48.152;11.528;2023-02-15T17:30:02;34.23;;;15.77;;
3867;SDS011;1949;48.152;11.528;2023-02-15T17:32:38;56.23;;;24.40;;
3867;SDS011;1949;48.152;11.528;2023-02-15T17:35:31;65.03;;;25.53;;
3867;SDS011;1949;48.152;11.528;2023-02-15T17:38:01;30.90;;;15.07;;
3867;SDS011;1949;48.152;11.528;2023-02-15T17:40:40;35.27;;;14.10;;
3867;SDS011;1949;48.152;11.528;2023-02-15T17:43:06;28.10;;;13.10;;
3867;SDS011;1949;48.152;11.528;2023-02-15T17:46:05;68.40;;;30.47;;
3867;SDS011;1949;48.152;11.528;2023-02-15T17:48:39;80.30;;;30.23;;
3867;SDS011;1949;48.152;11.528;2023-02-15T17:51:09;53.70;;;21.70;;
3867;SDS011;1949;48.152;11.528;2023-02-15T17:53:38;50.17;;;20.40;;
3867;SDS011;1949;48.152;11.528;2023-02-15T17:56:04;28.63;;;14.50;;
3867;SDS011;1949;48.152;11.528;2023-02-15T18:01:06;22.90;;;11.60;;
3867;SDS011;1949;48.152;11.528;2023-02-15T18:03:57;25.50;;;12.50;;
3867;SDS011;1949;48.152;11.528;2023-02-15T18:06:43;24.83;;;11.53;;
3867;SDS011;1949;48.152;11.528;2023-02-15T18:09:29;21.83;;;11.23;;
3867;SDS011;1949;48.152;11.528;2023-02-15T18:12:24;62.57;;;26.00;;
3867;SDS011;1949;48.152;11.528;2023-02-15T18:15:12;57.80;;;21.40;;
3867;SDS011;1949;48.152;11.528;2023-02-15T18:17:41;37.00;;;15.57;;
3867;SDS011;1949;48.152;11.528;2023-02-15T18:20:21;32.17;;;11.87;;
3867;SDS011;1949;48.152;11.528;2023-02-15T18:22:52;31.40;;;14.27;;
3867;SDS011;1949;48.152;11.528;2023-02-15T18:25:19;27.17;;;12.20;;
3867;SDS011;1949;48.152;11.528;2023-02-15T18:27:50;28.93;;;13.33;;
3867;SDS011;1949;48.152;11.528;2023-02-15T18:30:19;31.80;;;12.40;;
3867;SDS011;1949;48.152;11.528;2023-02-15T18:32:49;34.40;;;12.80;;
3867;SDS011;1949;48.152;11.528;2023-02-15T18:37:55;25.87;;;13.60;;
3867;SDS011;1949;48.152;11.528;2023-02-15T18:40:23;28.30;;;13.10;;
3867;SDS011;1949;48.152;11.528;2023-02-15T18:42:52;29.70;;;12.83;;
3867;SDS011;1949;48.152;11.528;2023-02-15T18:45:25;29.30;;;11.80;;
3867;SDS011;1949;48.152;11.528;2023-02-15T18:48:00;28.63;;;12.67;;
3867;SDS011;1949;48.152;11.528;2023-02-15T18:52:58;28.73;;;13.20;;
3867;SDS011;1949;48.152;11.528;2023-02-15T18:55:25;29.70;;;13.27;;
3867;SDS011;1949;48.152;11.528;2023-02-15T18:57:53;32.87;;;13.63;;
3867;SDS011;1949;48.152;11.528;2023-02-15T19:00:21;33.77;;;13.80;;
3867;SDS011;1949;48.152;11.528;2023-02-15T19:02:50;28.00;;;13.50;;
3867;SDS011;1949;48.152;11.528;2023-02-15T19:05:16;23.80;;;11.87;;
3867;SDS011;1949;48.152;11.528;2023-02-15T19:07:43;38.00;;;15.07;;